Date,TemperatureHighF,TemperatureAvgF,TemperatureLowF,DewpointHighF,DewpointAvgF,DewpointLowF,HumidityHigh,HumidityAvg,HumidityLow,PressureMaxIn,PressureMinIn,WindSpeedMaxMPH,WindSpeedAvgMPH,GustSpeedMaxMPH,PrecipitationSumIn
2013-8-1,92.3,80.3,71.5,77.4,71.6,67.3,93,77,46,30.01,29.89,0,0,0,0.01
2013-8-2,92.3,80.5,71.1,75.6,71.7,68.0,92,76,49,29.99,29.88,0,0,0,0.02
2013-8-3,91.8,79.1,72.3,77.5,72.4,68.9,92,81,52,30.04,29.95,0,0,0,0.24
2013-8-4,87.8,78.6,73.3,79.1,74.5,70.8,93,88,68,30.06,29.94,0,0,0,1.05
2013-8-5,92.3,82.1,72.8,79.2,74.2,70.0,93,78,57,29.97,29.86,0,0,0,0.05
2013-8-6,94.3,81.3,73.2,78.1,73.3,70.1,92,78,49,29.93,29.83,0,0,0,0.52
2013-8-7,93.4,81.8,75.6,77.9,73.8,70.3,93,78,48,29.92,29.84,0,0,0,0.02
2013-8-8,92.3,82.2,75.4,76.9,73.3,70.4,91,76,51,29.97,29.88,0,0,0,0.03
2013-8-9,90.3,79.1,73.5,77.7,73.1,68.3,91,83,55,30.01,29.91,0,0,0,0.79
2013-8-10,92.7,82.0,70.6,76.6,71.4,63.0,93,73,38,30.07,29.97,0,0,0,0.01
2013-8-11,93.8,83.8,72.3,75.9,72.2,66.4,91,70,44,30.09,30.00,0,0,0,0.00
2013-8-12,93.4,83.2,72.3,78.0,71.7,67.9,91,70,49,30.07,29.94,0,0,0,0.00
2013-8-13,94.0,83.7,73.2,75.6,72.2,67.7,90,70,44,30.00,29.86,0,0,0,0.00
2013-8-14,92.7,80.7,73.9,78.2,73.4,69.2,91,79,56,29.97,29.86,0,0,0,0.00
2013-8-15,92.7,81.3,71.1,76.6,72.3,68.0,92,75,51,29.98,29.87,0,0,0,0.00
2013-8-16,91.2,82.4,75.8,76.8,74.2,70.5,89,77,56,30.01,29.91,0,0,0,0.39
2013-8-17,93.4,80.5,74.2,78.6,73.5,69.7,92,80,55,30.02,29.92,0,0,0,0.21
2013-8-18,90.7,79.2,74.4,77.6,73.6,70.0,93,84,58,30.05,29.96,0,0,0,0.20
2013-8-19,92.3,80.2,72.3,77.9,72.8,69.8,93,79,50,30.02,29.90,0,0,0,0.02
2013-8-20,92.7,80.5,73.2,76.8,72.0,69.1,92,77,51,30.03,29.93,0,0,0,0.00
2013-8-21,92.5,78.9,71.8,77.0,72.7,66.0,92,83,52,30.05,29.96,0,0,0,1.09
2013-8-22,92.9,79.4,74.4,77.9,73.4,70.2,93,83,56,30.03,29.91,0,0,0,0.52
2013-8-23,92.7,80.4,73.2,78.2,73.4,68.2,94,81,51,29.96,29.88,0,0,0,1.08
2013-8-24,91.8,79.2,72.0,77.5,72.5,69.6,94,81,54,30.05,29.94,0,0,0,0.01
2013-8-25,87.6,79.2,72.8,75.4,72.3,69.9,93,80,61,30.10,30.01,0,0,0,0.00
2013-8-26,89.5,78.4,72.7,76.7,72.4,69.9,92,83,58,30.08,29.96,0,0,1,3.88
2013-8-27,89.9,80.4,70.9,75.3,69.9,66.2,93,73,47,30.01,29.92,0,0,3,0.01
2013-8-28,91.4,79.4,68.4,72.0,67.5,62.9,92,69,40,30.00,29.91,0,0,0,0.00
2013-8-29,92.5,79.9,69.1,73.1,69.3,64.9,93,72,43,29.98,29.87,0,0,0,0.00
2013-8-30,91.0,80.2,71.6,78.6,72.4,68.2,91,78,53,29.93,29.84,0,0,0,0.08
2013-8-31,90.7,79.6,73.2,77.2,72.7,67.1,92,80,55,29.93,29.83,0,0,0,0.52